Shiro, Texas
Current Conditions -  °F | °C
As of 12:11 AM on Monday 22 Dec 2014 (Local Time) from KUTS Reporting Station
Overcast Overcast  
Wind Chill: 13°   Ceiling: 1000
Heat Index: 13°   Visibility: 10mi
Dew Point: 11°   Wind: 6mph
Humidity: 86%   Direction: 160°SSE
Pressure: 29.84"   Gusts: NA
Location:  30.61°N, 95.89°W
Report Text: KUTS 220611Z AUTO 16005KT 10SM BKN010 OVC032 13/11 A2984 RMK AO2 T01280106
Loading
Personal Weather Stations






























Interactive Weather Map New forecast layout! Learn more

10-Day Weather Forecast

Advertisements
Track Severe Weather on mobile